Time;durP1;ratioP1;P1;durP2;ratioP2;P2;SDS_P1;SDS_P2;PMS_P1;PMS_P2;Temp;Humidity;BMP_temperature;BMP_pressure;BME280_temperature;BME280_humidity;BME280_pressure;Samples;Min_cycle;Max_cycle;Signal;HPM_P1;HPM_P2
2023/07/22 00:01:43;;;;;;;2.25;2.05;;;19.50;99.90;;;;;;5111077;28;20238;-64
2023/07/22 00:04:10;;;;;;;2.00;1.90;;;19.50;99.90;;;;;;5106228;28;20199;-63
2023/07/22 00:06:37;;;;;;;2.30;2.10;;;19.40;99.90;;;;;;5109905;28;20196;-63
2023/07/22 00:09:05;;;;;;;2.20;1.65;;;19.40;99.90;;;;;;5110147;28;20680;-63
2023/07/22 00:11:32;;;;;;;1.77;1.60;;;19.40;99.90;;;;;;5109750;28;20192;-63
2023/07/22 00:14:00;;;;;;;2.50;2.30;;;19.30;99.90;;;;;;5086474;28;20261;-63
2023/07/22 00:16:29;;;;;;;3.60;2.55;;;19.30;99.90;;;;;;5109313;28;20188;-63
2023/07/22 00:18:56;;;;;;;2.95;2.70;;;19.30;99.90;;;;;;5109840;28;20279;-64
2023/07/22 00:21:23;;;;;;;4.07;2.70;;;19.30;99.90;;;;;;5087704;28;20304;-64
2023/07/22 00:23:50;;;;;;;3.00;2.60;;;19.30;99.90;;;;;;5110462;28;20199;-64
2023/07/22 00:26:17;;;;;;;3.45;2.83;;;19.30;99.90;;;;;;5110009;28;20244;-64
2023/07/22 00:28:44;;;;;;;3.33;2.50;;;19.30;99.90;;;;;;5110306;28;20194;-64
2023/07/22 00:31:11;;;;;;;1.92;1.83;;;19.30;99.90;;;;;;5109536;28;20600;-64
2023/07/22 00:33:39;;;;;;;1.60;1.50;;;19.30;99.90;;;;;;5107695;28;20196;-65
2023/07/22 00:36:07;;;;;;;2.28;1.60;;;19.20;99.90;;;;;;5107918;28;20804;-65
2023/07/22 00:38:34;;;;;;;1.73;1.63;;;19.10;99.90;;;;;;5108637;28;20666;-64
2023/07/22 00:41:04;;;;;;;1.20;1.20;;;19.20;99.90;;;;;;5105297;28;20195;-63
2023/07/22 00:43:31;;;;;;;1.73;1.63;;;19.00;99.90;;;;;;5076532;28;20332;-64
2023/07/22 00:45:59;;;;;;;1.95;1.80;;;19.00;99.90;;;;;;5091414;28;20204;-64
2023/07/22 00:48:28;;;;;;;1.60;1.50;;;19.00;99.90;;;;;;5101990;28;20192;-64
2023/07/22 00:50:56;;;;;;;1.73;1.58;;;19.00;99.90;;;;;;5109172;28;20199;-65
2023/07/22 00:53:23;;;;;;;1.80;1.70;;;19.00;99.90;;;;;;5109198;28;20184;-63
2023/07/22 00:55:50;;;;;;;1.45;1.35;;;19.00;99.90;;;;;;5088739;28;20237;-65
2023/07/22 00:58:17;;;;;;;1.48;1.38;;;19.00;99.90;;;;;;5110224;28;20302;-65
2023/07/22 01:00:45;;;;;;;1.00;1.00;;;19.00;99.90;;;;;;5088331;28;20205;-64
2023/07/22 01:03:12;;;;;;;1.17;1.17;;;18.90;99.90;;;;;;5090005;28;20222;-64
2023/07/22 01:05:41;;;;;;;1.25;1.15;;;19.00;99.90;;;;;;5107030;28;20207;-65
2023/07/22 01:08:10;;;;;;;1.00;1.00;;;18.90;99.90;;;;;;5113658;28;20276;-65
2023/07/22 01:10:37;;;;;;;1.70;1.60;;;19.00;99.90;;;;;;5112650;28;20370;-63
2023/07/22 01:13:04;;;;;;;2.00;1.80;;;19.00;99.90;;;;;;5095581;28;20207;-63
2023/07/22 01:15:32;;;;;;;1.70;1.60;;;19.00;99.90;;;;;;5109548;28;20249;-64
2023/07/22 01:18:01;;;;;;;1.45;1.38;;;18.90;99.90;;;;;;5109225;28;20211;-64
2023/07/22 01:20:29;;;;;;;1.30;1.20;;;18.90;99.90;;;;;;5094300;28;20739;-64
2023/07/22 01:22:57;;;;;;;2.13;1.73;;;18.90;99.90;;;;;;5111832;28;20294;-64
2023/07/22 01:25:25;;;;;;;1.63;1.52;;;18.90;99.90;;;;;;5094302;28;20659;-63
2023/07/22 01:27:53;;;;;;;1.67;1.58;;;18.90;99.90;;;;;;5095020;28;20200;-64
2023/07/22 01:30:20;;;;;;;2.22;1.80;;;18.90;99.90;;;;;;5112387;28;20235;-64
2023/07/22 01:32:48;;;;;;;1.80;1.70;;;18.90;99.90;;;;;;5094377;28;20200;-64
2023/07/22 01:35:15;;;;;;;2.05;1.60;;;18.90;99.90;;;;;;5110728;28;20279;-64
2023/07/22 01:37:42;;;;;;;1.45;1.35;;;18.90;99.90;;;;;;5105833;28;20621;-64
2023/07/22 01:40:12;;;;;;;2.08;1.98;;;18.80;99.90;;;;;;5110859;28;20202;-64
2023/07/22 01:42:39;;;;;;;2.05;1.95;;;18.80;99.90;;;;;;5112995;28;20208;-64
2023/07/22 01:45:08;;;;;;;2.38;2.10;;;18.80;99.90;;;;;;5102910;28;20200;-64
2023/07/22 01:47:35;;;;;;;2.42;1.65;;;18.70;99.90;;;;;;5094091;28;20196;-64
2023/07/22 01:50:02;;;;;;;1.63;1.52;;;18.70;99.90;;;;;;5083540;28;20298;-64
2023/07/22 01:52:30;;;;;;;1.55;1.15;;;18.70;99.90;;;;;;5111888;28;20239;-64
2023/07/22 01:54:57;;;;;;;1.27;1.27;;;18.70;99.90;;;;;;5098222;28;20196;-64
2023/07/22 01:57:25;;;;;;;1.55;1.40;;;18.60;99.90;;;;;;5112425;28;20607;-64
2023/07/22 01:59:52;;;;;;;1.30;1.20;;;18.50;99.90;;;;;;5111493;28;20200;-64
2023/07/22 02:02:20;;;;;;;1.00;1.00;;;18.60;99.90;;;;;;5109223;28;20220;-64
2023/07/22 02:04:47;;;;;;;1.35;1.30;;;18.60;99.90;;;;;;5093338;28;20192;-64
2023/07/22 02:07:15;;;;;;;1.33;1.23;;;18.60;99.90;;;;;;5093468;28;20212;-64
2023/07/22 02:09:42;;;;;;;0.93;0.93;;;18.50;99.90;;;;;;5088605;28;20663;-65
2023/07/22 02:12:10;;;;;;;1.25;1.15;;;18.50;99.90;;;;;;5112408;28;20278;-64
2023/07/22 02:14:39;;;;;;;0.95;0.95;;;18.50;99.90;;;;;;5111618;28;20268;-64
2023/07/22 02:17:08;;;;;;;0.95;0.95;;;18.50;99.90;;;;;;5103558;28;20273;-64
2023/07/22 02:19:36;;;;;;;0.80;0.80;;;18.50;99.90;;;;;;5091366;28;20200;-64
2023/07/22 02:22:04;;;;;;;0.98;0.80;;;18.50;99.90;;;;;;5111507;28;20208;-65
2023/07/22 02:24:32;;;;;;;0.73;0.73;;;18.50;99.90;;;;;;5083422;28;20212;-65
2023/07/22 02:26:59;;;;;;;0.80;0.80;;;18.50;99.90;;;;;;5092524;28;20204;-65
2023/07/22 02:29:26;;;;;;;1.10;1.00;;;18.40;99.90;;;;;;5112110;28;20191;-65
2023/07/22 02:31:55;;;;;;;0.77;0.77;;;18.40;99.90;;;;;;5111973;28;20228;-65
2023/07/22 02:34:22;;;;;;;1.38;0.90;;;18.40;99.90;;;;;;5112119;28;20192;-65
2023/07/22 02:36:49;;;;;;;1.10;1.10;;;18.30;99.90;;;;;;5111939;28;20207;-65
2023/07/22 02:39:16;;;;;;;1.00;1.00;;;18.40;99.90;;;;;;5090591;28;20203;-65
2023/07/22 02:41:43;;;;;;;0.80;0.80;;;18.40;99.90;;;;;;5091591;28;20196;-65
2023/07/22 02:44:10;;;;;;;1.33;1.15;;;18.40;99.90;;;;;;5112110;28;20226;-64
2023/07/22 02:46:37;;;;;;;1.10;1.10;;;18.40;99.90;;;;;;5111823;28;20192;-64
2023/07/22 02:49:06;;;;;;;1.02;1.02;;;18.40;99.90;;;;;;5104269;28;20228;-65
2023/07/22 02:51:33;;;;;;;1.20;1.10;;;18.30;99.90;;;;;;5091519;28;20200;-65
2023/07/22 02:54:00;;;;;;;2.33;1.08;;;18.30;99.90;;;;;;5111066;28;20214;-64
2023/07/22 02:56:27;;;;;;;1.02;1.02;;;18.30;99.90;;;;;;5111226;28;20194;-65
2023/07/22 02:58:54;;;;;;;1.25;1.17;;;18.30;99.90;;;;;;5088041;28;20228;-65
2023/07/22 03:01:21;;;;;;;1.50;1.40;;;18.30;99.90;;;;;;5077713;28;20294;-64
2023/07/22 03:03:48;;;;;;;1.83;1.27;;;18.20;99.90;;;;;;5086827;28;20241;-64
2023/07/22 03:06:17;;;;;;;1.20;1.10;;;18.20;99.90;;;;;;5107803;28;20699;-65
2023/07/22 03:08:44;;;;;;;1.10;1.10;;;18.30;99.90;;;;;;5110588;28;20199;-65
2023/07/22 03:11:11;;;;;;;1.25;1.00;;;18.30;99.90;;;;;;5110339;28;20204;-64
2023/07/22 03:13:38;;;;;;;0.85;0.85;;;18.20;99.90;;;;;;5111662;28;20192;-64
2023/07/22 03:16:05;;;;;;;0.90;0.90;;;18.20;99.90;;;;;;5108010;28;20667;-64
2023/07/22 03:18:32;;;;;;;0.80;0.80;;;18.20;99.90;;;;;;5108350;28;20558;-64
2023/07/22 03:20:59;;;;;;;1.58;1.23;;;18.20;99.90;;;;;;5110053;28;20646;-64
2023/07/22 03:23:28;;;;;;;1.05;0.98;;;18.20;99.90;;;;;;5111048;28;20233;-64
2023/07/22 03:25:55;;;;;;;0.82;0.82;;;18.20;99.90;;;;;;5110612;28;20194;-64
2023/07/22 03:28:22;;;;;;;1.23;1.00;;;18.20;99.90;;;;;;5111639;28;20191;-64
2023/07/22 03:30:49;;;;;;;1.05;1.05;;;18.20;99.90;;;;;;5086073;28;20290;-64
2023/07/22 03:33:16;;;;;;;1.05;1.02;;;18.20;99.90;;;;;;5076635;28;20197;-65
2023/07/22 03:35:43;;;;;;;0.68;0.68;;;18.20;99.90;;;;;;5068112;28;20209;-65
2023/07/22 03:38:10;;;;;;;0.80;0.80;;;18.20;99.90;;;;;;5075828;28;20212;-64
2023/07/22 03:40:39;;;;;;;1.00;1.00;;;18.20;99.90;;;;;;5068086;28;20252;-64
2023/07/22 03:43:06;;;;;;;1.10;1.10;;;18.20;99.90;;;;;;5065970;28;20209;-64
2023/07/22 03:45:33;;;;;;;0.82;0.82;;;18.20;99.90;;;;;;5070598;28;20204;-64
2023/07/22 03:48:01;;;;;;;0.93;0.93;;;18.10;99.90;;;;;;5070049;28;20197;-64
2023/07/22 03:50:29;;;;;;;1.20;1.00;;;18.10;99.90;;;;;;5070151;28;20553;-64
2023/07/22 03:52:56;;;;;;;0.90;0.90;;;18.10;99.90;;;;;;5070232;28;20201;-64
2023/07/22 03:55:23;;;;;;;0.90;0.90;;;18.10;99.90;;;;;;5066810;28;20201;-64
2023/07/22 03:57:51;;;;;;;1.13;1.13;;;18.10;99.90;;;;;;5067592;28;20214;-64
2023/07/22 04:00:19;;;;;;;1.05;1.05;;;18.20;99.90;;;;;;5068692;28;20204;-64
2023/07/22 04:02:46;;;;;;;1.40;1.30;;;18.20;99.90;;;;;;5076532;28;20212;-64
2023/07/22 04:05:13;;;;;;;0.88;0.88;;;18.10;99.90;;;;;;5075352;28;20225;-64
2023/07/22 04:07:40;;;;;;;1.10;1.10;;;18.20;99.90;;;;;;5079435;28;20212;-64
2023/07/22 04:10:08;;;;;;;0.95;0.95;;;18.20;99.90;;;;;;5073479;28;20648;-64
2023/07/22 04:12:35;;;;;;;1.20;1.10;;;18.20;99.90;;;;;;5063842;28;20285;-64
2023/07/22 04:15:05;;;;;;;1.63;1.00;;;18.20;99.90;;;;;;5062851;28;20212;-64
2023/07/22 04:17:32;;;;;;;1.08;1.08;;;18.20;99.90;;;;;;5054361;28;20190;-64
2023/07/22 04:19:59;;;;;;;0.85;0.85;;;18.20;99.90;;;;;;5063050;28;20209;-64
2023/07/22 04:22:26;;;;;;;0.80;0.80;;;18.20;99.90;;;;;;5073792;28;20220;-64
2023/07/22 04:24:53;;;;;;;0.93;0.93;;;18.20;99.90;;;;;;5086378;28;20200;-64
2023/07/22 04:27:21;;;;;;;0.90;0.90;;;18.20;99.90;;;;;;5087227;28;20198;-63
2023/07/22 04:29:48;;;;;;;0.90;0.90;;;18.30;99.90;;;;;;5074768;28;20266;-64
2023/07/22 04:32:16;;;;;;;1.02;0.90;;;18.30;99.90;;;;;;5103213;28;20227;-63
2023/07/22 04:34:44;;;;;;;0.75;0.75;;;18.30;99.90;;;;;;5104525;28;20187;-64
2023/07/22 04:37:12;;;;;;;1.05;1.00;;;18.40;99.90;;;;;;5109736;28;20196;-64
2023/07/22 04:39:39;;;;;;;1.08;1.08;;;18.40;99.90;;;;;;5108743;28;20309;-64
2023/07/22 04:42:07;;;;;;;1.10;1.10;;;18.40;99.90;;;;;;5101329;28;20648;-64
2023/07/22 04:44:34;;;;;;;1.58;1.10;;;18.50;99.90;;;;;;5109570;28;20326;-64
2023/07/22 04:47:01;;;;;;;1.08;1.08;;;18.50;99.90;;;;;;5109810;28;20196;-64
2023/07/22 04:49:29;;;;;;;0.98;0.98;;;18.50;99.90;;;;;;5109434;28;20199;-64
2023/07/22 04:51:56;;;;;;;1.38;1.25;;;18.50;99.90;;;;;;5102485;28;20294;-64
2023/07/22 04:54:23;;;;;;;1.00;1.00;;;18.50;99.90;;;;;;5101335;28;20654;-64
2023/07/22 04:56:50;;;;;;;1.08;1.08;;;18.50;99.90;;;;;;5109816;28;20208;-65
2023/07/22 04:59:18;;;;;;;1.42;1.20;;;18.50;99.90;;;;;;5109094;28;20196;-64
2023/07/22 05:01:45;;;;;;;1.08;1.00;;;18.60;99.90;;;;;;5109499;28;20203;-64
2023/07/22 05:04:13;;;;;;;1.30;1.20;;;18.60;99.90;;;;;;5088334;28;20208;-63
2023/07/22 05:06:41;;;;;;;1.67;1.50;;;18.60;99.90;;;;;;5109218;28;20200;-63
2023/07/22 05:09:09;;;;;;;1.20;1.10;;;18.70;99.90;;;;;;5090690;28;20192;-63
2023/07/22 05:11:36;;;;;;;1.38;1.27;;;18.70;99.90;;;;;;5089139;28;20609;-64
2023/07/22 05:14:03;;;;;;;1.00;1.00;;;18.70;99.90;;;;;;5109357;28;20203;-64
2023/07/22 05:16:30;;;;;;;1.80;0.90;;;18.70;99.90;;;;;;5099383;28;20188;-64
2023/07/22 05:18:57;;;;;;;0.88;0.88;;;18.70;99.90;;;;;;5087904;28;20272;-63
2023/07/22 05:21:24;;;;;;;1.02;0.93;;;18.70;99.90;;;;;;5090001;28;20220;-63
2023/07/22 05:23:52;;;;;;;1.20;1.15;;;18.70;99.90;;;;;;5109481;28;20239;-63
2023/07/22 05:26:19;;;;;;;0.90;0.90;;;18.70;99.90;;;;;;5108933;28;20192;-63
2023/07/22 05:28:46;;;;;;;1.10;1.00;;;18.70;99.90;;;;;;5107369;28;20246;-63
2023/07/22 05:31:13;;;;;;;1.20;1.10;;;18.80;99.90;;;;;;5090244;28;20259;-63
2023/07/22 05:33:40;;;;;;;1.08;1.08;;;18.80;99.90;;;;;;5109053;28;20237;-63
2023/07/22 05:36:07;;;;;;;1.38;1.25;;;18.80;99.90;;;;;;5108572;28;20224;-63
2023/07/22 05:38:35;;;;;;;1.10;1.00;;;18.80;99.90;;;;;;5109135;28;20196;-63
2023/07/22 05:41:03;;;;;;;1.10;1.00;;;18.90;99.90;;;;;;5106575;28;20192;-63
2023/07/22 05:43:30;;;;;;;1.13;1.00;;;18.90;99.90;;;;;;5097301;28;20204;-63
2023/07/22 05:45:57;;;;;;;0.80;0.80;;;18.90;99.90;;;;;;5090478;28;20199;-64
2023/07/22 05:48:24;;;;;;;0.80;0.80;;;18.90;99.90;;;;;;5090766;28;20253;-63
2023/07/22 05:50:51;;;;;;;0.88;0.88;;;19.00;99.90;;;;;;5106892;28;20964;-63
2023/07/22 05:53:18;;;;;;;1.30;0.90;;;19.00;99.90;;;;;;5093383;28;20545;-63
2023/07/22 05:55:45;;;;;;;0.70;0.70;;;19.00;99.90;;;;;;5106471;28;20270;-63
2023/07/22 05:58:18;;;;;;;0.70;0.70;;;19.00;99.90;;;;;;5106811;28;20192;-63
2023/07/22 06:00:46;;;;;;;0.70;0.70;;;19.00;99.90;;;;;;5112287;28;20252;-63
2023/07/22 06:03:13;;;;;;;1.58;1.00;;;19.00;99.90;;;;;;5109646;28;20290;-63
2023/07/22 06:05:40;;;;;;;1.48;0.80;;;19.00;99.90;;;;;;5103900;28;20227;-63
2023/07/22 06:08:07;;;;;;;1.15;1.05;;;19.00;99.90;;;;;;5112713;28;20279;-63
2023/07/22 06:10:34;;;;;;;0.77;0.77;;;19.10;99.90;;;;;;5110517;28;20410;-64
2023/07/22 06:13:01;;;;;;;0.93;0.93;;;19.10;99.90;;;;;;5107403;28;20196;-64
2023/07/22 06:15:30;;;;;;;0.80;0.80;;;19.10;99.90;;;;;;5108926;28;20596;-64
2023/07/22 06:17:57;;;;;;;0.85;0.85;;;19.10;99.90;;;;;;5108067;28;20189;-63
2023/07/22 06:20:24;;;;;;;0.98;0.80;;;19.10;99.90;;;;;;5109914;28;20268;-63
2023/07/22 06:22:51;;;;;;;0.90;0.90;;;19.10;99.90;;;;;;5111624;28;20192;-63
2023/07/22 06:25:18;;;;;;;1.13;1.10;;;19.10;99.90;;;;;;5104394;28;20675;-64
2023/07/22 06:27:45;;;;;;;1.20;1.05;;;19.20;99.90;;;;;;5112512;28;20551;-63
2023/07/22 06:30:12;;;;;;;1.00;1.00;;;19.20;99.90;;;;;;5105989;28;20594;-63
2023/07/22 06:32:41;;;;;;;1.48;1.33;;;19.20;99.90;;;;;;5111855;28;20270;-64
2023/07/22 06:35:09;;;;;;;0.98;0.98;;;19.30;99.90;;;;;;5111518;28;20244;-64
2023/07/22 06:37:36;;;;;;;0.80;0.80;;;19.30;99.90;;;;;;5111805;28;20191;-63
2023/07/22 06:40:03;;;;;;;2.20;1.05;;;19.20;99.90;;;;;;5110720;28;20669;-63
2023/07/22 06:42:31;;;;;;;0.82;0.82;;;19.30;99.90;;;;;;5093157;28;20228;-64
2023/07/22 06:44:58;;;;;;;0.70;0.70;;;19.30;99.90;;;;;;5111353;28;20235;-64
2023/07/22 06:47:25;;;;;;;0.80;0.80;;;19.20;99.90;;;;;;5109344;28;20277;-64
2023/07/22 06:49:53;;;;;;;0.70;0.70;;;19.30;99.90;;;;;;5108333;28;20453;-64
2023/07/22 06:52:20;;;;;;;1.05;1.05;;;19.30;99.90;;;;;;5109033;28;20270;-63
2023/07/22 06:54:47;;;;;;;0.70;0.70;;;19.30;99.90;;;;;;5105399;28;20195;-63
2023/07/22 06:57:14;;;;;;;1.08;0.98;;;19.20;99.90;;;;;;5111134;28;20223;-64
2023/07/22 06:59:41;;;;;;;1.48;1.40;;;19.30;99.90;;;;;;5108892;28;20310;-64
2023/07/22 07:02:09;;;;;;;2.03;1.10;;;19.30;99.90;;;;;;5105203;28;20320;-64
2023/07/22 07:04:36;;;;;;;1.40;1.17;;;19.40;99.90;;;;;;5092840;28;20203;-64
2023/07/22 07:07:05;;;;;;;1.33;1.23;;;19.40;99.90;;;;;;5092447;28;20202;-63
2023/07/22 07:09:32;;;;;;;1.08;1.05;;;19.40;99.90;;;;;;5111455;28;20268;-64
2023/07/22 07:11:59;;;;;;;1.25;1.17;;;19.40;99.90;;;;;;5110034;28;20227;-64
2023/07/22 07:14:26;;;;;;;2.05;1.33;;;19.40;99.90;;;;;;5111254;28;20237;-64
2023/07/22 07:16:53;;;;;;;1.10;1.10;;;19.50;99.90;;;;;;5107448;28;20257;-64
2023/07/22 07:19:20;;;;;;;1.85;1.40;;;19.50;99.90;;;;;;5111212;28;20200;-63
2023/07/22 07:21:47;;;;;;;0.98;0.98;;;19.50;99.90;;;;;;5109478;28;20196;-63
2023/07/22 07:24:16;;;;;;;1.20;1.20;;;19.60;99.90;;;;;;5098207;28;20219;-64
2023/07/22 07:26:43;;;;;;;1.52;1.27;;;19.60;99.90;;;;;;5092250;28;20283;-63
2023/07/22 07:29:10;;;;;;;1.30;1.30;;;19.60;99.90;;;;;;5100976;28;20203;-64
2023/07/22 07:31:37;;;;;;;1.30;1.20;;;19.60;99.90;;;;;;5099971;28;20240;-64
2023/07/22 07:34:04;;;;;;;1.17;1.10;;;19.70;99.90;;;;;;5088632;28;20220;-64
2023/07/22 07:36:33;;;;;;;1.40;1.30;;;19.70;99.90;;;;;;5107143;28;20244;-64
2023/07/22 07:39:00;;;;;;;1.00;1.00;;;19.80;99.90;;;;;;5100881;28;20207;-64
2023/07/22 07:41:29;;;;;;;0.85;0.85;;;19.90;99.90;;;;;;5110023;28;20547;-64
2023/07/22 07:43:56;;;;;;;1.10;1.10;;;20.00;99.90;;;;;;5106437;28;20307;-64
2023/07/22 07:46:25;;;;;;;1.95;1.20;;;20.10;99.90;;;;;;5110518;28;20708;-64
2023/07/22 07:48:53;;;;;;;3.35;1.52;;;20.20;99.90;;;;;;5110836;28;20299;-65
2023/07/22 07:51:22;;;;;;;0.88;0.88;;;20.40;99.90;;;;;;5109698;28;20275;-64
2023/07/22 07:53:50;;;;;;;0.98;0.98;;;20.50;99.90;;;;;;5102281;28;20285;-64
2023/07/22 07:56:19;;;;;;;1.20;0.90;;;20.50;99.90;;;;;;5106178;28;20195;-64
2023/07/22 07:58:49;;;;;;;0.85;0.85;;;20.60;99.90;;;;;;5080835;28;20224;-64
2023/07/22 08:01:17;;;;;;;1.20;1.20;;;20.60;99.90;;;;;;5109575;28;20188;-64
2023/07/22 08:03:45;;;;;;;1.00;1.00;;;20.50;99.90;;;;;;5109711;28;20191;-65
2023/07/22 08:06:13;;;;;;;1.10;1.10;;;20.50;99.90;;;;;;5091207;28;20253;-65
2023/07/22 08:08:40;;;;;;;0.90;0.90;;;20.50;99.90;;;;;;5096342;28;20660;-65
2023/07/22 08:11:09;;;;;;;0.80;0.80;;;20.50;99.90;;;;;;5105243;28;20816;-64
2023/07/22 08:13:37;;;;;;;2.08;1.00;;;20.50;99.90;;;;;;5109405;28;20219;-65
2023/07/22 08:16:07;;;;;;;1.30;1.20;;;20.60;99.90;;;;;;5091067;28;20241;-64
2023/07/22 08:18:35;;;;;;;1.40;1.30;;;20.60;99.90;;;;;;5109218;28;20639;-64
2023/07/22 08:21:03;;;;;;;1.30;1.20;;;20.60;99.90;;;;;;5109631;28;20196;-64
2023/07/22 08:23:30;;;;;;;2.08;1.50;;;20.60;99.90;;;;;;5105334;28;20196;-65
2023/07/22 08:25:58;;;;;;;1.33;1.30;;;20.60;99.90;;;;;;5085228;28;20652;-64
2023/07/22 08:28:25;;;;;;;1.50;1.40;;;20.60;99.90;;;;;;5110455;28;20278;-65
2023/07/22 08:30:55;;;;;;;0.88;0.88;;;20.60;99.90;;;;;;5108126;28;20258;-65
2023/07/22 08:33:25;;;;;;;1.38;1.27;;;20.70;99.90;;;;;;5105341;28;20221;-64
2023/07/22 08:35:53;;;;;;;1.50;1.40;;;20.70;99.90;;;;;;5106905;28;20192;-65
2023/07/22 08:38:20;;;;;;;1.27;1.27;;;20.80;99.90;;;;;;5108200;28;20269;-64
2023/07/22 08:40:50;;;;;;;3.40;1.50;;;20.80;99.90;;;;;;5109364;28;20220;-65
2023/07/22 08:43:21;;;;;;;1.52;1.33;;;20.90;99.90;;;;;;5109384;28;20665;-64
2023/07/22 08:45:49;;;;;;;1.40;1.30;;;21.00;99.90;;;;;;5107594;28;20257;-65
2023/07/22 08:48:19;;;;;;;2.10;1.48;;;21.10;99.90;;;;;;5104817;28;20256;-64
2023/07/22 08:50:50;;;;;;;2.05;1.90;;;21.10;99.90;;;;;;5109892;28;20218;-64
2023/07/22 08:53:19;;;;;;;1.40;1.30;;;21.10;99.90;;;;;;5097582;28;20188;-64
2023/07/22 08:55:47;;;;;;;1.42;1.33;;;21.10;99.90;;;;;;5107990;28;20333;-64
2023/07/22 08:58:15;;;;;;;1.42;1.40;;;21.10;99.90;;;;;;5090208;28;20196;-64
2023/07/22 09:00:42;;;;;;;1.52;1.42;;;21.00;99.90;;;;;;5109896;28;20196;-64
2023/07/22 09:03:10;;;;;;;3.08;1.80;;;21.00;99.90;;;;;;5090028;28;20667;-64
2023/07/22 09:05:38;;;;;;;2.88;1.40;;;21.00;99.90;;;;;;5090932;28;20307;-65
2023/07/22 09:08:08;;;;;;;1.40;1.30;;;20.90;99.90;;;;;;5103198;28;20192;-64
2023/07/22 09:10:36;;;;;;;1.30;1.20;;;21.00;99.90;;;;;;5101207;28;20195;-64
2023/07/22 09:13:04;;;;;;;1.60;1.50;;;21.00;99.90;;;;;;5105276;28;20258;-64
2023/07/22 09:15:35;;;;;;;1.40;1.40;;;21.00;99.90;;;;;;5082473;28;20207;-64
2023/07/22 09:18:02;;;;;;;1.30;1.30;;;21.10;99.90;;;;;;5102381;28;20196;-64
2023/07/22 09:20:30;;;;;;;1.20;1.20;;;21.20;99.90;;;;;;5107617;28;20249;-64
2023/07/22 09:22:57;;;;;;;1.25;1.25;;;21.30;99.90;;;;;;5108595;28;20195;-64
2023/07/22 09:25:30;;;;;;;1.20;1.20;;;21.40;99.90;;;;;;5109007;28;21023;-64
2023/07/22 09:28:01;;;;;;;1.48;1.38;;;21.50;99.90;;;;;;5105419;28;20267;-65
2023/07/22 09:30:29;;;;;;;1.20;1.20;;;21.50;99.90;;;;;;5109650;28;20231;-64
2023/07/22 09:32:58;;;;;;;1.40;1.30;;;21.40;99.90;;;;;;5111374;28;20290;-64
2023/07/22 09:35:27;;;;;;;1.08;1.08;;;21.50;99.70;;;;;;5113188;28;20275;-64
2023/07/22 09:37:55;;;;;;;1.67;1.58;;;21.50;99.60;;;;;;5109712;28;20340;-64
2023/07/22 09:40:23;;;;;;;1.13;1.13;;;21.50;99.40;;;;;;5094042;28;20244;-64
2023/07/22 09:42:53;;;;;;;1.40;1.30;;;21.60;99.40;;;;;;5111306;28;20199;-64
2023/07/22 09:45:22;;;;;;;1.75;1.65;;;21.70;99.20;;;;;;5104236;28;20272;-65
2023/07/22 09:47:51;;;;;;;1.65;1.55;;;21.80;99.20;;;;;;5111620;28;20308;-65
2023/07/22 09:50:19;;;;;;;1.80;1.70;;;21.90;99.20;;;;;;5113416;28;20223;-64
2023/07/22 09:52:48;;;;;;;1.10;1.05;;;22.00;99.00;;;;;;5110497;28;20680;-67
2023/07/22 09:55:17;;;;;;;1.17;1.17;;;22.00;98.90;;;;;;5107769;28;20288;-67
2023/07/22 09:57:46;;;;;;;1.08;1.08;;;22.10;98.90;;;;;;5089332;28;20823;-67
2023/07/22 10:00:18;;;;;;;0.82;0.82;;;22.30;98.90;;;;;;5112643;28;20625;-67
2023/07/22 10:02:45;;;;;;;0.85;0.80;;;22.40;98.70;;;;;;5113214;28;20206;-68
2023/07/22 10:05:15;;;;;;;1.23;1.10;;;22.50;98.50;;;;;;5100907;28;20215;-68
2023/07/22 10:07:46;;;;;;;1.10;1.00;;;22.60;97.50;;;;;;5111509;28;20765;-68
2023/07/22 10:10:15;;;;;;;0.90;0.90;;;22.70;96.70;;;;;;5092229;28;20214;-68
2023/07/22 10:12:43;;;;;;;0.80;0.80;;;22.80;96.30;;;;;;5112355;28;20294;-69
2023/07/22 10:15:11;;;;;;;0.85;0.82;;;22.80;96.10;;;;;;5108731;28;20219;-69
2023/07/22 10:17:41;;;;;;;0.88;0.88;;;22.90;95.90;;;;;;5111034;28;20595;-69
2023/07/22 10:20:14;;;;;;;1.00;1.00;;;22.90;95.90;;;;;;5084122;28;20210;-69
2023/07/22 10:22:43;;;;;;;0.75;0.75;;;23.00;95.80;;;;;;5105635;28;20207;-68
2023/07/22 10:25:12;;;;;;;1.27;1.00;;;23.10;95.50;;;;;;5093605;28;20231;-68
2023/07/22 10:27:40;;;;;;;0.85;0.85;;;23.00;95.00;;;;;;5110289;28;20223;-68
2023/07/22 10:30:08;;;;;;;0.90;0.90;;;23.00;94.80;;;;;;5111703;28;20192;-68
2023/07/22 10:32:38;;;;;;;1.23;0.82;;;22.90;94.70;;;;;;5112282;28;20652;-69
2023/07/22 10:35:10;;;;;;;1.05;1.00;;;22.80;94.60;;;;;;5111602;28;20195;-70
2023/07/22 10:37:41;;;;;;;0.90;0.90;;;22.70;94.20;;;;;;5111944;28;20192;-70
2023/07/22 10:40:19;;;;;;;1.13;1.02;;;22.60;94.00;;;;;;5091207;28;20902;-70
2023/07/22 10:42:59;;;;;;;1.00;1.00;;;22.50;94.00;;;;;;5108797;28;20215;-70
2023/07/22 10:45:28;;;;;;;1.25;1.15;;;22.40;94.10;;;;;;5111437;28;20290;-70
2023/07/22 10:48:06;;;;;;;0.80;0.80;;;22.40;94.30;;;;;;5093506;28;20207;-71
2023/07/22 10:50:46;;;;;;;0.88;0.88;;;22.30;94.30;;;;;;5093404;28;20208;-70
2023/07/22 10:53:15;;;;;;;3.50;1.00;;;22.20;94.50;;;;;;5111724;28;20196;-70
2023/07/22 10:56:14;;;;;;;1.98;0.90;;;22.20;94.70;;;;;;5110506;28;20252;-70
2023/07/22 10:59:00;;;;;;;0.90;0.90;;;22.20;94.50;;;;;;5032911;28;20263;-70
2023/07/22 11:01:38;;;;;;;2.17;1.00;;;22.20;94.40;;;;;;5098807;28;20208;-70
2023/07/22 11:04:13;;;;;;;1.20;1.10;;;22.30;94.20;;;;;;5084488;28;20304;-70
2023/07/22 11:06:54;;;;;;;1.40;1.00;;;22.20;93.80;;;;;;5095483;28;20227;-70
2023/07/22 11:09:39;;;;;;;1.83;1.30;;;22.20;93.70;;;;;;5110237;28;20289;-70
2023/07/22 11:12:08;;;;;;;2.45;1.38;;;22.20;93.50;;;;;;5111342;28;20200;-71
2023/07/22 11:14:38;;;;;;;1.15;1.05;;;22.20;93.40;;;;;;5110415;28;20215;-71
2023/07/22 11:17:08;;;;;;;0.90;0.90;;;22.40;93.60;;;;;;5083363;28;20237;-70
2023/07/22 11:19:35;;;;;;;0.80;0.80;;;22.40;93.60;;;;;;5111023;28;20194;-70
2023/07/22 11:22:04;;;;;;;1.42;0.90;;;22.50;93.40;;;;;;5110542;28;20222;-70
2023/07/22 11:24:34;;;;;;;1.10;1.10;;;22.40;93.10;;;;;;5092605;28;20249;-71
2023/07/22 11:27:03;;;;;;;2.88;1.05;;;22.40;93.20;;;;;;5091876;28;20242;-71
2023/07/22 11:29:31;;;;;;;0.77;0.77;;;22.40;93.20;;;;;;5110816;28;20196;-71
2023/07/22 11:31:58;;;;;;;0.80;0.80;;;22.40;93.10;;;;;;5091784;28;20235;-70
2023/07/22 11:34:28;;;;;;;2.05;1.13;;;22.40;93.00;;;;;;5091772;28;20249;-70
2023/07/22 11:36:57;;;;;;;0.80;0.80;;;22.30;92.10;;;;;;5090230;28;20197;-71
2023/07/22 11:39:27;;;;;;;1.23;1.13;;;22.20;92.10;;;;;;5090105;28;20671;-71
2023/07/22 11:41:54;;;;;;;1.10;0.90;;;22.10;91.70;;;;;;5092544;28;20655;-71
2023/07/22 11:44:23;;;;;;;0.90;0.90;;;22.00;91.90;;;;;;5086870;28;20192;-70
2023/07/22 11:46:54;;;;;;;1.00;1.00;;;22.00;92.00;;;;;;5106593;28;20240;-70
2023/07/22 11:49:28;;;;;;;1.30;0.77;;;21.90;92.10;;;;;;5107612;28;20302;-70
2023/07/22 11:51:57;;;;;;;0.90;0.90;;;21.90;92.10;;;;;;5102901;28;20644;-71
2023/07/22 11:54:32;;;;;;;1.00;1.00;;;22.00;92.10;;;;;;5108005;28;20269;-71
2023/07/22 11:57:11;;;;;;;1.20;1.20;;;22.20;92.20;;;;;;5086292;28;20672;-70
2023/07/22 11:59:39;;;;;;;0.80;0.80;;;22.40;92.10;;;;;;5107390;28;20196;-70
2023/07/22 12:02:07;;;;;;;0.90;0.82;;;22.60;92.00;;;;;;5108275;28;20294;-70
2023/07/22 12:04:35;;;;;;;0.70;0.70;;;22.60;91.80;;;;;;5100883;28;20639;-70
2023/07/22 12:07:03;;;;;;;0.75;0.75;;;22.70;91.70;;;;;;5090287;28;20252;-70
2023/07/22 12:09:32;;;;;;;4.88;0.90;;;22.70;91.50;;;;;;5090880;28;20237;-70
2023/07/22 12:12:02;;;;;;;0.80;0.80;;;22.70;91.60;;;;;;5092368;28;20207;-70
2023/07/22 12:14:36;;;;;;;0.88;0.88;;;22.80;91.50;;;;;;5087199;28;20927;-70
2023/07/22 12:17:03;;;;;;;0.77;0.77;;;22.90;91.50;;;;;;5105063;28;20673;-70
2023/07/22 12:19:31;;;;;;;1.30;1.20;;;23.00;91.30;;;;;;5090485;28;20405;-70
2023/07/22 12:21:58;;;;;;;1.08;1.02;;;23.10;90.60;;;;;;5105718;28;20778;-70
2023/07/22 12:24:25;;;;;;;2.17;1.40;;;23.10;90.50;;;;;;5090082;28;20662;-70
2023/07/22 12:26:53;;;;;;;1.10;1.10;;;23.10;89.20;;;;;;5091530;28;20281;-70
2023/07/22 12:29:21;;;;;;;1.58;1.48;;;23.10;88.70;;;;;;5101400;28;20556;-70
2023/07/22 12:31:49;;;;;;;2.35;1.20;;;23.10;88.10;;;;;;5091856;28;20241;-70
2023/07/22 12:34:16;;;;;;;5.35;1.17;;;23.20;87.00;;;;;;5108180;28;20712;-70
2023/07/22 12:36:43;;;;;;;1.02;1.02;;;23.10;85.40;;;;;;5104684;28;20271;-71
2023/07/22 12:39:10;;;;;;;1.13;1.10;;;22.90;84.90;;;;;;5110171;28;20200;-70
2023/07/22 12:41:38;;;;;;;1.15;1.10;;;22.70;85.80;;;;;;5107530;28;20196;-71
2023/07/22 12:44:09;;;;;;;0.90;0.90;;;22.50;86.90;;;;;;5083904;28;20714;-71
2023/07/22 12:46:36;;;;;;;1.13;1.00;;;22.30;87.90;;;;;;5109482;28;20199;-71
2023/07/22 12:49:05;;;;;;;0.80;0.80;;;22.20;89.40;;;;;;5109180;28;20336;-71
2023/07/22 12:51:32;;;;;;;0.80;0.80;;;22.10;89.20;;;;;;5088910;28;20306;-70
2023/07/22 12:53:59;;;;;;;0.80;0.80;;;22.20;89.60;;;;;;5109486;28;20667;-71